Time;durP1;ratioP1;P1;durP2;ratioP2;P2;SDS_P1;SDS_P2;PMS_P1;PMS_P2;Temp;Humidity;BMP_temperature;BMP_pressure;BME280_temperature;BME280_humidity;BME280_pressure;Samples;Min_cycle;Max_cycle;Signal;HPM_P1;HPM_P2
2022/06/26 00:00:44;;;;;;;1.30;1.20;;;;;;;27.29;45.94;93710.63;5047465;28;20213;-63
2022/06/26 00:03:28;;;;;;;2.10;1.47;;;;;;;27.44;45.55;93709.25;5043017;28;20347;-63
2022/06/26 00:06:12;;;;;;;2.07;1.43;;;;;;;27.18;45.90;93706.25;5048393;28;20244;-63
2022/06/26 00:08:56;;;;;;;2.43;1.30;;;;;;;26.92;46.82;93706.81;5047781;28;20256;-63
2022/06/26 00:11:40;;;;;;;1.10;1.00;;;;;;;26.99;46.93;93711.16;5047112;28;20294;-62
2022/06/26 00:14:25;;;;;;;2.90;0.93;;;;;;;27.12;46.38;93709.81;5050547;28;20243;-63
2022/06/26 00:17:10;;;;;;;3.13;1.30;;;;;;;26.85;47.87;93706.03;5048252;28;20197;-63
2022/06/26 00:19:54;;;;;;;3.57;1.50;;;;;;;27.05;46.97;93713.38;5047050;28;20721;-63
2022/06/26 00:22:39;;;;;;;1.70;1.33;;;;;;;27.15;47.08;93719.91;5044786;28;20193;-63
2022/06/26 00:25:23;;;;;;;1.23;1.13;;;;;;;27.15;46.02;93713.44;5048415;28;20213;-64
2022/06/26 00:28:07;;;;;;;2.83;1.37;;;;;;;26.99;46.32;93714.06;5047534;28;20277;-63
2022/06/26 00:30:51;;;;;;;3.43;1.43;;;;;;;27.04;47.13;93717.66;5041200;28;20214;-63
2022/06/26 00:33:35;;;;;;;3.40;1.70;;;;;;;26.84;47.62;93721.13;5040843;28;20716;-63
2022/06/26 00:36:19;;;;;;;1.50;1.07;;;;;;;26.95;47.33;93719.78;5046374;28;20832;-63
2022/06/26 00:39:03;;;;;;;1.30;1.17;;;;;;;26.95;47.71;93714.75;5048311;28;20301;-62
2022/06/26 00:41:47;;;;;;;1.47;1.10;;;;;;;27.16;46.68;93709.84;5045648;28;20240;-62
2022/06/26 00:44:31;;;;;;;3.50;1.20;;;;;;;27.03;46.93;93713.38;5050222;28;20682;-63
2022/06/26 00:47:15;;;;;;;1.27;1.00;;;;;;;27.04;46.97;93720.53;5046999;28;20347;-63
2022/06/26 00:49:59;;;;;;;1.70;1.23;;;;;;;26.98;47.23;93730.59;5045329;28;20202;-63
2022/06/26 00:52:44;;;;;;;2.43;1.30;;;;;;;27.02;46.82;93720.53;5044812;28;20210;-62
2022/06/26 00:55:28;;;;;;;4.67;1.60;;;;;;;26.75;48.09;93728.22;5047736;28;20198;-63
2022/06/26 00:58:13;;;;;;;2.20;1.37;;;;;;;27.38;45.88;93717.88;5040778;28;20738;-63
2022/06/26 01:00:57;;;;;;;2.20;1.27;;;;;;;26.70;47.58;93730.38;5044600;28;20197;-63
2022/06/26 01:03:41;;;;;;;1.33;1.10;;;;;;;26.53;48.30;93726.66;5047677;28;20221;-63
2022/06/26 01:06:26;;;;;;;1.63;1.53;;;;;;;26.59;48.26;93725.97;5042558;28;20251;-63
2022/06/26 01:09:11;;;;;;;2.43;1.40;;;;;;;26.58;48.47;93727.41;5030530;28;20272;-63
2022/06/26 01:11:55;;;;;;;2.17;1.40;;;;;;;26.44;49.00;93733.75;5053355;28;20980;-63
2022/06/26 01:14:40;;;;;;;1.20;1.10;;;;;;;26.24;49.77;93727.09;5063020;28;20273;-63
2022/06/26 01:17:24;;;;;;;1.67;1.20;;;;;;;26.43;48.82;93731.56;5048901;28;20205;-62
2022/06/26 01:20:09;;;;;;;1.20;1.10;;;;;;;26.46;48.54;93724.44;5048083;28;20248;-63
2022/06/26 01:23:07;;;;;;;2.00;1.27;;;;;;;26.22;49.39;93724.91;5047301;28;20202;-63
2022/06/26 01:25:51;;;;;;;1.53;1.23;;;;;;;26.24;50.03;93721.34;5062890;28;20264;-62
2022/06/26 01:28:35;;;;;;;1.50;1.30;;;;;;;26.40;49.61;93710.00;5047031;28;20209;-62
2022/06/26 01:31:20;;;;;;;1.90;1.27;;;;;;;26.55;48.58;93714.44;5038728;28;20587;-63
2022/06/26 01:34:06;;;;;;;2.00;1.30;;;;;;;26.52;49.25;93721.59;5053988;28;20197;-63
2022/06/26 01:36:50;;;;;;;3.80;1.40;;;;;;;26.42;49.41;93724.38;5037898;28;20205;-63
2022/06/26 01:39:35;;;;;;;2.50;1.40;;;;;;;26.38;49.52;93722.19;5050938;28;20229;-63
2022/06/26 01:42:19;;;;;;;2.90;1.20;;;;;;;26.30;49.74;93724.28;5048573;28;20217;-62
2022/06/26 01:45:04;;;;;;;6.00;1.30;;;;;;;26.28;49.41;93718.53;5049861;28;20247;-63
2022/06/26 01:47:48;;;;;;;2.97;1.43;;;;;;;26.26;49.69;93730.72;5053145;28;20729;-63
2022/06/26 01:50:33;;;;;;;2.60;1.17;;;;;;;26.22;49.30;93730.66;5043800;28;20690;-63
2022/06/26 01:53:17;;;;;;;4.33;1.43;;;;;;;26.18;49.87;93719.84;5050466;28;20209;-63
2022/06/26 01:56:03;;;;;;;2.30;1.20;;;;;;;26.25;49.37;93728.53;5051314;28;20236;-63
2022/06/26 01:59:00;;;;;;;3.77;1.00;;;;;;;26.32;49.14;93732.91;5051233;28;20229;-63
2022/06/26 02:01:50;;;;;;;1.97;1.20;;;;;;;26.18;50.05;93742.09;5031978;28;20229;-62
2022/06/26 02:04:35;;;;;;;2.47;1.30;;;;;;;25.77;52.18;93752.44;5048051;28;20221;-63
2022/06/26 02:07:20;;;;;;;1.30;1.00;;;;;;;26.30;50.18;93756.59;5056173;28;20274;-63
2022/06/26 02:16:17;;;;;;;1.53;1.20;;;;;;;26.65;49.05;93763.38;5049824;28;20639;-63
2022/06/26 02:19:02;;;;;;;2.70;1.50;;;;;;;26.50;49.76;93761.81;5051443;28;20232;-63
2022/06/26 02:21:46;;;;;;;3.50;1.83;;;;;;;26.57;49.76;93769.06;5050428;28;20197;-63
2022/06/26 02:24:30;;;;;;;1.27;1.17;;;;;;;26.68;49.62;93779.22;5049851;28;20282;-63
2022/06/26 02:27:14;;;;;;;3.40;1.50;;;;;;;25.70;53.10;93785.34;5051215;28;20225;-63
2022/06/26 02:29:58;;;;;;;1.73;1.63;;;;;;;25.70;55.64;93788.94;5047444;28;20198;-63
2022/06/26 02:32:42;;;;;;;4.30;2.10;;;;;;;26.04;55.52;93797.25;5051536;28;21015;-63
2022/06/26 02:35:29;;;;;;;1.90;1.80;;;;;;;25.51;57.66;93800.84;5050149;28;20290;-63
2022/06/26 02:38:15;;;;;;;6.27;1.63;;;;;;;26.06;57.02;93817.34;5060345;28;20218;-63
2022/06/26 02:41:03;;;;;;;2.70;2.10;;;;;;;26.17;55.91;93821.78;5047534;28;20822;-63
2022/06/26 02:43:47;;;;;;;3.63;2.30;;;;;;;26.15;55.90;93824.66;5052128;28;20198;-63
2022/06/26 02:46:31;;;;;;;6.03;2.50;;;;;;;26.23;62.44;93823.28;5046330;28;20582;-62
2022/06/26 02:49:15;;;;;;;2.07;1.97;;;;;;;26.00;57.91;93814.41;5049664;28;20733;-63
2022/06/26 02:52:01;;;;;;;2.70;2.47;;;;;;;26.71;55.60;93812.31;5046025;28;20260;-64
2022/06/26 02:54:44;;;;;;;2.43;2.23;;;;;;;26.87;54.79;93815.31;5052737;28;20201;-63
2022/06/26 02:57:29;;;;;;;4.50;2.37;;;;;;;26.58;55.09;93816.50;5043613;28;20248;-63
2022/06/26 03:00:15;;;;;;;3.43;2.50;;;;;;;26.62;55.43;93816.53;5048362;28;20213;-62
2022/06/26 03:03:03;;;;;;;3.03;2.67;;;;;;;26.51;56.24;93823.59;5069243;28;20221;-63
2022/06/26 03:05:48;;;;;;;2.33;2.13;;;;;;;26.16;56.72;93820.34;5048283;28;20217;-63
2022/06/26 03:08:32;;;;;;;3.77;1.63;;;;;;;25.89;54.74;93821.47;5050453;28;20624;-63
2022/06/26 03:11:16;;;;;;;4.50;1.40;;;;;;;25.48;55.04;93817.34;5045082;28;20313;-63
2022/06/26 03:14:00;;;;;;;1.50;1.40;;;;;;;25.33;55.59;93832.88;5061846;28;20287;-62
2022/06/26 03:16:44;;;;;;;2.63;1.60;;;;;;;25.08;56.54;93836.81;5050028;28;20511;-63
2022/06/26 03:19:28;;;;;;;2.23;1.30;;;;;;;25.26;55.05;93845.69;5026890;28;20252;-63
2022/06/26 03:22:12;;;;;;;1.00;1.00;;;;;;;25.13;55.91;93833.31;5048825;28;20248;-63
2022/06/26 03:24:57;;;;;;;1.23;1.13;;;;;;;25.55;54.38;93841.09;5042216;28;20253;-63
2022/06/26 03:27:45;;;;;;;3.67;1.17;;;;;;;25.36;54.14;93843.72;5045836;28;20578;-62
2022/06/26 03:30:29;;;;;;;0.93;0.87;;;;;;;25.62;53.80;93839.75;5046603;28;20678;-62
2022/06/26 03:33:13;;;;;;;2.10;1.00;;;;;;;25.94;52.57;93839.47;5047903;28;20209;-63
2022/06/26 03:35:57;;;;;;;2.97;1.40;;;;;;;25.72;53.43;93854.25;5049628;28;20574;-62
2022/06/26 03:38:43;;;;;;;1.37;1.20;;;;;;;26.34;51.67;93851.47;5051243;28;20221;-62
2022/06/26 03:41:28;;;;;;;1.30;1.10;;;;;;;25.76;52.50;93854.31;5044805;28;20206;-62
2022/06/26 03:44:12;;;;;;;1.40;1.20;;;;;;;25.71;52.35;93858.56;5047833;28;20246;-62
2022/06/26 03:46:58;;;;;;;2.07;1.07;;;;;;;26.41;51.06;93861.59;5044613;28;20419;-62
2022/06/26 03:49:42;;;;;;;1.77;1.10;;;;;;;26.56;50.47;93866.06;5049142;28;20571;-62
2022/06/26 03:52:26;;;;;;;2.90;0.90;;;;;;;26.00;51.21;93868.97;5047945;28;20273;-62
2022/06/26 03:55:13;;;;;;;2.93;1.00;;;;;;;26.62;50.10;93871.13;5049217;28;20263;-63
2022/06/26 03:57:57;;;;;;;1.17;1.10;;;;;;;26.66;49.75;93867.59;5045514;28;20259;-62
2022/06/26 04:00:41;;;;;;;1.00;1.00;;;;;;;26.26;50.22;93873.63;5049661;28;20233;-63
2022/06/26 04:03:26;;;;;;;1.50;1.10;;;;;;;26.79;49.31;93869.84;5048994;28;20683;-62
2022/06/26 04:06:10;;;;;;;1.53;1.00;;;;;;;26.30;49.82;93873.66;5049766;28;20205;-63
2022/06/26 04:08:55;;;;;;;0.93;0.90;;;;;;;27.24;47.67;93873.16;5049524;28;20204;-62
2022/06/26 04:11:40;;;;;;;1.60;1.07;;;;;;;25.62;50.40;93874.19;5040783;28;20260;-62
2022/06/26 04:14:24;;;;;;;1.60;0.83;;;;;;;26.54;49.13;93871.03;5048603;28;20662;-62
2022/06/26 04:17:08;;;;;;;0.93;0.93;;;;;;;27.25;47.05;93865.97;5048932;28;20263;-62
2022/06/26 04:19:57;;;;;;;2.73;1.17;;;;;;;27.24;47.39;93873.16;5045189;28;20261;-62
2022/06/26 04:22:41;;;;;;;2.47;1.00;;;;;;;26.63;48.05;93869.72;5043369;28;20609;-63
2022/06/26 04:25:31;;;;;;;2.63;1.00;;;;;;;26.99;48.13;93872.22;5048325;28;20219;-62
2022/06/26 04:28:14;;;;;;;0.73;0.73;;;;;;;27.33;46.83;93866.03;5050391;28;20917;-62
2022/06/26 04:31:01;;;;;;;1.93;0.90;;;;;;;27.16;47.04;93870.22;5034056;28;20205;-63
2022/06/26 04:33:48;;;;;;;2.47;1.20;;;;;;;26.72;47.68;93870.53;5049706;28;20197;-62
2022/06/26 04:36:32;;;;;;;1.13;1.00;;;;;;;26.34;48.85;93873.72;5044021;28;20309;-62
2022/06/26 04:39:18;;;;;;;2.90;1.00;;;;;;;26.00;48.45;93866.09;5031859;28;20303;-63
2022/06/26 04:42:06;;;;;;;1.60;0.80;;;;;;;26.84;47.00;93868.50;5043265;28;20210;-62
2022/06/26 04:44:54;;;;;;;4.10;1.30;;;;;;;27.70;45.72;93859.13;5048531;28;20213;-63
2022/06/26 04:47:40;;;;;;;0.73;0.73;;;;;;;27.71;45.23;93863.41;5049492;28;20741;-63
2022/06/26 04:50:30;;;;;;;1.03;0.93;;;;;;;27.53;45.61;93871.94;5050606;28;20205;-63
2022/06/26 04:53:15;;;;;;;1.03;0.93;;;;;;;27.85;44.96;93870.69;5053180;28;20236;-63
2022/06/26 04:55:59;;;;;;;3.83;0.90;;;;;;;27.56;45.55;93870.53;5052169;28;20201;-63
2022/06/26 04:58:45;;;;;;;2.67;0.90;;;;;;;27.54;44.92;93879.16;5048782;28;20283;-63
2022/06/26 05:01:29;;;;;;;1.13;1.03;;;;;;;28.00;44.67;93875.09;5047424;28;20718;-63
2022/06/26 05:04:25;;;;;;;1.20;1.00;;;;;;;28.25;43.35;93876.69;5050955;28;20309;-64
2022/06/26 05:07:32;;;;;;;2.20;1.10;;;;;;;28.11;43.86;93874.44;5047311;28;20209;-64
2022/06/26 05:10:16;;;;;;;1.43;1.17;;;;;;;28.06;43.71;93872.25;5051097;28;20201;-64
2022/06/26 05:13:27;;;;;;;1.50;0.90;;;;;;;27.80;44.30;93869.97;5046510;28;20324;-64
2022/06/26 05:16:28;;;;;;;1.10;1.00;;;;;;;28.15;43.58;93865.09;5050138;28;20744;-64
2022/06/26 05:19:14;;;;;;;2.57;0.93;;;;;;;27.92;43.72;93866.41;5047573;28;20244;-64
2022/06/26 05:21:59;;;;;;;3.63;0.93;;;;;;;27.96;43.69;93870.03;5050830;28;20224;-64
2022/06/26 05:24:44;;;;;;;1.17;1.03;;;;;;;28.52;42.81;93875.31;5049309;28;20295;-64
2022/06/26 05:27:29;;;;;;;2.40;0.93;;;;;;;28.40;43.51;93881.06;5046168;28;20333;-64
2022/06/26 05:30:13;;;;;;;0.73;0.73;;;;;;;28.41;43.36;93867.38;5051424;28;20189;-64
2022/06/26 05:32:59;;;;;;;0.80;0.80;;;;;;;28.37;43.79;93870.97;5051633;28;20201;-64
2022/06/26 05:35:44;;;;;;;2.43;1.00;;;;;;;28.07;43.63;93873.72;5044438;28;20202;-64
2022/06/26 05:38:29;;;;;;;0.90;0.90;;;;;;;28.25;43.57;93876.69;5050565;28;20276;-64
2022/06/26 05:41:14;;;;;;;0.93;0.70;;;;;;;28.26;42.93;93872.38;5044626;28;20293;-63
2022/06/26 05:43:58;;;;;;;1.70;1.03;;;;;;;27.87;43.90;93879.34;5050144;28;20205;-64
2022/06/26 05:46:44;;;;;;;1.63;1.07;;;;;;;27.56;44.24;93882.06;5049303;28;20224;-64
2022/06/26 05:49:58;;;;;;;1.10;1.00;;;;;;;27.73;44.08;93882.88;5041172;28;20221;-63
2022/06/26 05:53:02;;;;;;;0.90;0.90;;;;;;;28.49;42.96;93876.06;5070014;28;20201;-63
2022/06/26 05:56:00;;;;;;;3.10;0.97;;;;;;;28.51;42.72;93882.56;5049228;28;20828;-63
2022/06/26 05:59:08;;;;;;;0.77;0.77;;;;;;;28.90;42.14;93876.88;5049676;28;20291;-63
2022/06/26 06:02:28;;;;;;;0.63;0.60;;;;;;;28.91;41.69;93879.06;5040790;28;20202;-63
2022/06/26 06:05:12;;;;;;;0.80;0.80;;;;;;;28.52;43.11;93875.31;5070540;28;20958;-63
2022/06/26 06:07:56;;;;;;;2.83;1.27;;;;;;;29.14;42.88;93871.13;5043137;28;20214;-63
2022/06/26 06:10:41;;;;;;;1.67;1.27;;;;;;;28.93;42.33;93870.41;5048939;28;20237;-64
2022/06/26 06:13:25;;;;;;;1.07;0.93;;;;;;;29.46;41.83;93863.94;5039104;28;20210;-63
2022/06/26 06:16:09;;;;;;;1.37;1.10;;;;;;;29.18;42.64;93874.03;5054916;28;20216;-64
2022/06/26 06:18:54;;;;;;;0.80;0.80;;;;;;;29.38;42.32;93881.28;5051624;28;20218;-64
2022/06/26 06:21:39;;;;;;;1.53;0.80;;;;;;;28.87;40.61;93876.16;5044971;28;20277;-63
2022/06/26 06:24:23;;;;;;;0.70;0.70;;;;;;;30.07;39.09;93870.34;5050020;28;20247;-63
2022/06/26 06:27:09;;;;;;;3.37;1.00;;;;;;;29.55;40.12;93871.16;5051305;28;20189;-66
2022/06/26 06:29:53;;;;;;;1.50;0.70;;;;;;;30.14;39.00;93875.38;5044757;28;20206;-64
2022/06/26 06:32:37;;;;;;;1.70;0.80;;;;;;;30.08;39.24;93869.63;5048021;28;20240;-63
2022/06/26 06:35:24;;;;;;;2.70;0.90;;;;;;;29.41;39.38;93877.66;5049522;28;20251;-63
2022/06/26 06:38:09;;;;;;;0.63;0.63;;;;;;;30.38;38.21;93871.66;5047542;28;20769;-63
2022/06/26 06:40:55;;;;;;;1.03;0.80;;;;;;;30.47;38.72;93875.25;5044439;28;20198;-63
2022/06/26 06:43:50;;;;;;;0.70;0.70;;;;;;;29.43;40.47;93871.88;5049149;28;20637;-63
2022/06/26 06:47:03;;;;;;;0.80;0.60;;;;;;;30.36;39.64;93879.63;5045620;28;20724;-64
2022/06/26 06:49:53;;;;;;;2.93;0.97;;;;;;;30.08;39.10;93883.34;5050115;28;20744;-64
2022/06/26 06:52:37;;;;;;;0.70;0.70;;;;;;;30.12;38.10;93881.16;5040048;28;20901;-64
2022/06/26 06:55:21;;;;;;;0.80;0.80;;;;;;;29.14;39.37;93882.66;5039728;28;20201;-64
2022/06/26 06:58:05;;;;;;;0.60;0.60;;;;;;;30.24;38.04;93880.41;5046859;28;20268;-64
2022/06/26 07:00:51;;;;;;;0.60;0.60;;;;;;;30.32;37.64;93882.53;5045202;28;20189;-64
2022/06/26 07:03:35;;;;;;;1.02;0.70;;;;;;;31.21;36.36;93890.78;5044593;28;20894;-64
2022/06/26 07:06:19;;;;;;;4.70;0.77;;;;;;;31.48;36.07;93880.41;5047880;28;20644;-64
2022/06/26 07:09:03;;;;;;;1.88;0.70;;;;;;;31.36;35.39;93886.28;5044753;28;20580;-64
2022/06/26 07:11:49;;;;;;;1.60;0.60;;;;;;;32.01;35.02;93886.47;5036328;28;20734;-64
2022/06/26 07:14:33;;;;;;;1.08;0.57;;;;;;;33.19;32.97;93879.94;5040320;28;20197;-64
2022/06/26 07:17:17;;;;;;;2.45;0.60;;;;;;;33.02;32.70;93878.00;5045740;28;20281;-64
2022/06/26 07:20:01;;;;;;;0.80;0.60;;;;;;;32.97;32.91;93871.53;5050568;28;20237;-64
2022/06/26 07:22:48;;;;;;;0.82;0.32;;;;;;;32.84;33.57;93870.25;5054784;28;20205;-64
2022/06/26 07:25:42;;;;;;;0.35;0.35;;;;;;;32.64;34.46;93871.25;5044819;28;20281;-66
2022/06/26 07:28:27;;;;;;;0.98;0.55;;;;;;;32.95;34.72;93871.56;5043340;28;20252;-64
2022/06/26 07:31:11;;;;;;;2.00;0.50;;;;;;;32.69;34.62;93871.94;5048070;28;20252;-63
2022/06/26 07:34:16;;;;;;;2.58;0.45;;;;;;;32.47;35.30;93864.91;5045609;28;20243;-63
2022/06/26 07:37:00;;;;;;;0.40;0.40;;;;;;;33.19;33.43;93865.44;5048102;28;20205;-63
2022/06/26 07:39:44;;;;;;;0.35;0.30;;;;;;;33.41;34.32;93857.81;5049434;28;20601;-63
2022/06/26 07:42:29;;;;;;;0.43;0.43;;;;;;;33.89;32.24;93868.63;5041718;28;20344;-64
2022/06/26 07:45:13;;;;;;;1.10;0.57;;;;;;;34.01;31.96;93868.38;5047033;28;20221;-63
2022/06/26 07:48:08;;;;;;;1.15;0.40;;;;;;;35.11;30.53;93860.38;5049337;28;20205;-63
2022/06/26 07:50:56;;;;;;;4.22;0.55;;;;;;;34.89;31.05;93853.56;5039429;28;20810;-63
2022/06/26 07:53:40;;;;;;;1.05;0.43;;;;;;;34.78;30.89;93857.44;5050561;28;20264;-63
2022/06/26 07:56:25;;;;;;;0.40;0.40;;;;;;;34.93;31.32;93857.88;5042791;28;20699;-64
2022/06/26 07:59:09;;;;;;;0.40;0.40;;;;;;;35.44;29.84;93848.66;5042804;28;20887;-63
2022/06/26 08:01:53;;;;;;;0.60;0.60;;;;;;;34.94;31.20;93856.38;5037660;28;20210;-63
2022/06/26 08:04:37;;;;;;;0.52;0.52;;;;;;;34.97;31.86;93849.03;5046106;28;20229;-64
2022/06/26 08:07:21;;;;;;;2.50;0.60;;;;;;;34.88;31.73;93852.13;5042647;28;20205;-61
2022/06/26 08:10:06;;;;;;;2.22;0.60;;;;;;;34.44;32.25;93853.06;5049936;28;20201;-61
2022/06/26 08:12:50;;;;;;;1.38;0.50;;;;;;;35.31;31.31;93848.25;5046773;28;20201;-61
2022/06/26 08:15:35;;;;;;;1.85;0.40;;;;;;;35.36;31.21;93849.59;5044237;28;20322;-64
2022/06/26 08:18:19;;;;;;;1.35;0.57;;;;;;;37.94;27.52;93852.38;5049909;28;20225;-61
2022/06/26 08:22:00;;;;;;;0.40;0.40;;;;;;;36.23;30.75;93841.53;5051922;28;20629;-61
2022/06/26 08:24:14;;;;;;;0.98;0.60;;;;;;;36.93;30.45;93843.91;5049778;28;20201;-61
2022/06/26 08:26:59;;;;;;;0.40;0.40;;;;;;;36.86;29.80;93846.28;5045118;28;20210;-61
2022/06/26 08:29:43;;;;;;;2.50;0.60;;;;;;;36.51;30.20;93836.38;5051285;28;20201;-62
2022/06/26 08:32:27;;;;;;;1.15;0.60;;;;;;;36.72;30.68;93837.25;5046050;28;20221;-61
2022/06/26 08:35:13;;;;;;;0.40;0.40;;;;;;;36.73;30.51;93838.66;5042900;28;20220;-64
2022/06/26 08:37:57;;;;;;;0.80;0.43;;;;;;;35.74;30.89;93838.47;5049860;28;20277;-64
2022/06/26 08:40:42;;;;;;;1.05;0.57;;;;;;;36.07;32.31;93836.84;5048158;28;20252;-63
2022/06/26 08:43:27;;;;;;;3.60;0.55;;;;;;;36.66;30.45;93837.44;5051791;28;20213;-62
2022/06/26 08:46:12;;;;;;;0.50;0.50;;;;;;;36.70;30.89;93846.06;5051106;28;20328;-61
2022/06/26 08:49:01;;;;;;;1.85;0.57;;;;;;;36.59;30.49;93848.56;5047932;28;20548;-61
2022/06/26 08:51:47;;;;;;;1.45;0.40;;;;;;;37.45;29.33;93846.69;5048063;28;20201;-62
2022/06/26 08:54:32;;;;;;;0.45;0.45;;;;;;;37.53;29.04;93855.19;5046993;28;20205;-62
2022/06/26 08:57:16;;;;;;;0.98;0.65;;;;;;;37.81;28.97;93850.63;5047099;28;20284;-63
2022/06/26 09:00:03;;;;;;;0.40;0.40;;;;;;;37.56;28.52;93847.78;5045886;28;20234;-63
2022/06/26 09:02:47;;;;;;;0.65;0.45;;;;;;;37.20;28.82;93847.47;5049096;28;20232;-65
2022/06/26 09:05:31;;;;;;;0.40;0.40;;;;;;;37.72;28.72;93838.50;5048098;28;20236;-63
2022/06/26 09:08:20;;;;;;;0.50;0.50;;;;;;;37.22;29.38;93843.75;5044945;28;20195;-64
2022/06/26 09:11:04;;;;;;;0.98;0.43;;;;;;;38.34;28.05;93846.59;5048938;28;20254;-64
2022/06/26 09:13:52;;;;;;;0.88;0.35;;;;;;;38.03;28.14;93852.81;5032895;28;20201;-64
2022/06/26 09:16:38;;;;;;;0.65;0.47;;;;;;;39.06;26.37;93857.16;5052946;28;20804;-63
2022/06/26 09:19:33;;;;;;;0.43;0.40;;;;;;;38.88;25.78;93849.03;5053799;28;20249;-66
2022/06/26 09:22:17;;;;;;;0.93;0.50;;;;;;;38.60;27.62;93854.47;5044665;28;20574;-63
2022/06/26 09:25:00;;;;;;;2.42;0.50;;;;;;;37.97;27.60;93844.22;5046241;28;20201;-63
2022/06/26 09:27:45;;;;;;;0.30;0.30;;;;;;;39.35;24.53;93856.75;5051983;28;20253;-64
2022/06/26 09:30:29;;;;;;;1.60;0.20;;;;;;;40.05;24.13;93838.50;5046111;28;20567;-64
2022/06/26 09:33:14;;;;;;;0.88;0.40;;;;;;;39.72;25.28;93838.41;5053469;28;20295;-63
2022/06/26 09:36:00;;;;;;;0.75;0.50;;;;;;;39.04;26.01;93848.44;5047487;28;20202;-64
2022/06/26 09:38:49;;;;;;;0.40;0.40;;;;;;;40.07;24.39;93835.44;5037505;28;20928;-65
2022/06/26 09:41:34;;;;;;;5.07;0.70;;;;;;;38.69;25.12;93835.09;5052301;28;20210;-64
2022/06/26 09:44:22;;;;;;;3.35;0.75;;;;;;;40.20;24.04;93830.47;5052953;28;20202;-65
2022/06/26 09:47:20;;;;;;;1.83;1.70;;;;;;;39.68;24.92;93832.72;5048135;28;20201;-64
2022/06/26 09:50:07;;;;;;;0.50;0.40;;;;;;;39.82;24.11;93838.00;5039124;28;20252;-64
2022/06/26 09:52:51;;;;;;;1.60;0.40;;;;;;;41.36;23.10;93825.94;5045714;28;20746;-65
2022/06/26 09:55:35;;;;;;;0.85;0.40;;;;;;;39.44;25.17;93832.19;5045853;28;20699;-65
2022/06/26 09:58:20;;;;;;;0.55;0.50;;;;;;;41.87;21.95;93838.88;5047236;28;20264;-65
2022/06/26 10:07:13;;;;;;;0.30;0.30;;;;;;;41.54;21.86;93830.28;5050451;28;20691;-66
2022/06/26 10:09:58;;;;;;;0.82;0.50;;;;;;;41.03;23.95;93823.81;5047817;28;20190;-66
2022/06/26 10:12:46;;;;;;;2.38;0.50;;;;;;;41.63;23.38;93822.44;5044768;28;20693;-66
2022/06/26 10:15:35;;;;;;;0.30;0.30;;;;;;;41.96;24.09;93828.16;5051965;28;20702;-65
2022/06/26 10:18:56;;;;;;;0.40;0.28;;;;;;;41.64;22.05;93820.94;5055813;28;20218;-66
2022/06/26 10:21:42;;;;;;;1.33;0.40;;;;;;;41.80;21.70;93834.81;5047114;28;20734;-66
2022/06/26 10:24:26;;;;;;;0.30;0.30;;;;;;;42.41;22.97;93828.81;5051797;28;20734;-66
2022/06/26 10:27:12;;;;;;;1.20;0.38;;;;;;;43.76;20.27;93823.63;5059465;28;20300;-66
2022/06/26 10:30:05;;;;;;;0.30;0.30;;;;;;;44.99;18.79;93829.56;5049669;28;20268;-67
2022/06/26 10:33:18;;;;;;;0.40;0.40;;;;;;;43.53;19.58;93820.53;5045855;28;20620;-66
2022/06/26 10:36:02;;;;;;;1.35;0.40;;;;;;;44.69;19.67;93823.28;5052510;28;20231;-66
2022/06/26 10:38:46;;;;;;;0.38;0.32;;;;;;;44.28;20.05;93825.72;5047624;28;20277;-66
2022/06/26 10:44:49;;;;;;;1.50;0.50;;;;;;;44.97;19.86;93821.53;5047094;28;20214;-66
2022/06/26 10:47:51;;;;;;;1.38;0.38;;;;;;;45.46;19.04;93818.44;5046846;28;20206;-67
2022/06/26 10:50:41;;;;;;;0.45;0.40;;;;;;;44.30;20.30;93819.72;5066192;28;20201;-67
2022/06/26 10:53:29;;;;;;;0.40;0.40;;;;;;;46.64;17.15;93820.91;5048146;28;20260;-67
2022/06/26 10:56:13;;;;;;;4.90;2.45;;;;;;;46.14;19.27;93818.41;5050227;28;20205;-67
2022/06/26 10:59:02;;;;;;;5.57;1.40;;;;;;;45.65;18.32;93815.72;5046382;28;20224;-67
2022/06/26 11:01:46;;;;;;;0.40;0.40;;;;;;;45.39;18.96;93802.59;5046007;28;20570;-66
2022/06/26 11:04:30;;;;;;;1.35;0.30;;;;;;;45.41;18.81;93806.16;5049319;28;20275;-67
2022/06/26 11:07:15;;;;;;;7.93;1.40;;;;;;;46.41;19.12;93821.00;5045988;28;20198;-67
2022/06/26 11:09:59;;;;;;;1.85;0.40;;;;;;;46.85;17.31;93820.16;5048728;28;20263;-67
2022/06/26 11:12:46;;;;;;;0.93;0.50;;;;;;;46.69;18.09;93812.41;5044848;28;20267;-67
2022/06/26 11:15:32;;;;;;;2.15;0.95;;;;;;;45.83;18.75;93805.63;5038913;28;20798;-70
2022/06/26 11:18:16;;;;;;;1.90;0.70;;;;;;;46.07;18.94;93802.56;5037388;28;20197;-68
2022/06/26 11:21:01;;;;;;;1.27;0.40;;;;;;;47.01;17.83;93809.44;5039206;28;20202;-67
2022/06/26 11:23:47;;;;;;;0.98;0.50;;;;;;;47.70;17.63;93805.16;5051186;28;20285;-67
2022/06/26 11:26:32;;;;;;;0.77;0.77;;;;;;;47.12;17.52;93801.22;5048295;28;20196;-68
2022/06/26 11:29:16;;;;;;;0.82;0.50;;;;;;;48.80;17.78;93794.56;5028659;28;20208;-68
2022/06/26 11:31:59;;;;;;;1.02;0.63;;;;;;;45.59;20.00;93789.47;5035269;28;20248;-69
2022/06/26 11:34:51;;;;;;;0.57;0.40;;;;;;;48.95;15.99;93794.81;5047705;28;20208;-69
2022/06/26 11:37:37;;;;;;;0.55;0.40;;;;;;;47.59;17.91;93791.91;5042435;28;20693;-69
2022/06/26 11:40:22;;;;;;;1.23;0.43;;;;;;;47.62;17.37;93787.22;5037915;28;20318;-68
2022/06/26 11:43:07;;;;;;;0.95;0.47;;;;;;;48.50;17.99;93796.94;5036662;28;20213;-69
2022/06/26 11:45:54;;;;;;;0.40;0.40;;;;;;;48.41;16.61;93790.19;5038858;28;20263;-70
2022/06/26 11:48:39;;;;;;;0.40;0.30;;;;;;;47.91;18.13;93788.78;5044144;28;20205;-71
2022/06/26 11:51:24;;;;;;;4.00;0.50;;;;;;;50.48;16.53;93792.72;5041060;28;20198;-70
2022/06/26 11:54:08;;;;;;;0.70;0.60;;;;;;;49.11;17.35;93786.22;5049504;28;20196;-72
2022/06/26 11:56:52;;;;;;;0.45;0.40;;;;;;;49.15;16.47;93773.97;5038061;28;20625;-69
2022/06/26 11:59:44;;;;;;;0.82;0.60;;;;;;;47.84;17.72;93771.41;5050587;28;20290;-68
2022/06/26 12:02:28;;;;;;;1.25;0.60;;;;;;;47.41;17.26;93779.78;5040569;28;20189;-68
2022/06/26 12:05:12;;;;;;;1.05;0.52;;;;;;;48.04;17.91;93772.16;5050434;28;20305;-69
2022/06/26 12:07:57;;;;;;;0.82;0.40;;;;;;;48.43;17.49;93775.16;5047190;28;20201;-69
2022/06/26 12:10:41;;;;;;;2.53;0.52;;;;;;;48.29;17.32;93764.34;5041809;28;20348;-69
2022/06/26 12:13:29;;;;;;;0.82;0.50;;;;;;;49.12;17.04;93766.78;5048267;28;20192;-70
2022/06/26 12:16:14;;;;;;;1.98;0.50;;;;;;;49.09;15.30;93759.56;5047461;28;20249;-70
2022/06/26 12:18:58;;;;;;;0.47;0.40;;;;;;;49.75;15.95;93760.03;5048283;28;20355;-69
2022/06/26 12:21:54;;;;;;;3.50;0.60;;;;;;;48.65;17.41;93764.50;5045084;28;20708;-70
2022/06/26 12:24:52;;;;;;;1.02;0.40;;;;;;;48.80;16.65;93761.13;5050237;28;20232;-71
2022/06/26 12:27:37;;;;;;;1.17;0.47;;;;;;;50.01;15.82;93759.44;5044138;28;20209;-70
2022/06/26 12:30:25;;;;;;;4.10;0.43;;;;;;;49.69;15.46;93762.84;5045678;28;20640;-68
2022/06/26 12:33:09;;;;;;;0.95;0.50;;;;;;;49.63;16.97;93746.16;5048746;28;20247;-70
2022/06/26 12:35:53;;;;;;;1.08;0.40;;;;;;;49.32;17.12;93750.94;5050043;28;20193;-74
2022/06/26 12:38:38;;;;;;;0.40;0.40;;;;;;;49.31;16.50;93739.91;5042184;28;20212;-73
2022/06/26 12:41:22;;;;;;;0.73;0.57;;;;;;;50.64;15.76;93748.13;5039620;28;20219;-73
2022/06/26 12:44:06;;;;;;;3.42;1.42;;;;;;;50.05;15.75;93747.19;5043199;28;20209;-71
2022/06/26 12:46:50;;;;;;;0.43;0.43;;;;;;;51.36;15.09;93746.94;5047549;28;20339;-70
2022/06/26 12:49:34;;;;;;;2.05;0.40;;;;;;;49.84;15.20;93741.53;5041740;28;20205;-70
2022/06/26 12:52:18;;;;;;;1.13;0.40;;;;;;;48.81;16.20;93739.44;5041600;28;20252;-71
2022/06/26 12:55:07;;;;;;;1.02;0.55;;;;;;;51.61;15.01;93751.44;5040926;28;20259;-71
2022/06/26 12:57:51;;;;;;;3.63;0.90;;;;;;;50.96;13.94;93733.34;5046045;28;20749;-71
2022/06/26 13:00:35;;;;;;;1.55;0.50;;;;;;;51.20;14.76;93740.16;5036486;28;20217;-70
2022/06/26 13:03:21;;;;;;;0.73;0.50;;;;;;;48.35;15.87;93728.19;5046368;28;20232;-70
2022/06/26 13:06:05;;;;;;;0.65;0.65;;;;;;;48.47;16.96;93739.16;5046122;28;20261;-71
2022/06/26 13:08:49;;;;;;;0.40;0.40;;;;;;;50.09;15.71;93746.81;5046188;28;20224;-70
2022/06/26 13:11:36;;;;;;;1.85;0.45;;;;;;;51.89;15.22;93751.84;5040445;28;20268;-70
2022/06/26 13:14:19;;;;;;;0.75;0.60;;;;;;;51.30;14.51;93748.19;5050956;28;20342;-71
2022/06/26 13:17:04;;;;;;;1.35;0.50;;;;;;;50.84;14.95;93746.38;5047607;28;20285;-72
2022/06/26 13:19:48;;;;;;;6.93;1.30;;;;;;;52.92;13.49;93748.13;5051157;28;20705;-73